sensor_id;sensor_type;location;lat;lon;timestamp;P1;durP1;ratioP1;P2;durP2;ratioP2
54815;SDS011;40715;55.752;37.884;2022-08-19T00:01:59;0.00;;;0.00;;
54815;SDS011;40715;55.752;37.884;2022-08-19T00:04:32;0.00;;;0.00;;
54815;SDS011;40715;55.752;37.884;2022-08-19T00:07:06;0.00;;;0.00;;
54815;SDS011;40715;55.752;37.884;2022-08-19T00:09:33;0.00;;;0.00;;
54815;SDS011;40715;55.752;37.884;2022-08-19T00:12:00;0.00;;;0.00;;
54815;SDS011;40715;55.752;37.884;2022-08-19T00:14:28;0.00;;;0.00;;
54815;SDS011;40715;55.752;37.884;2022-08-19T00:16:59;0.00;;;0.00;;
54815;SDS011;40715;55.752;37.884;2022-08-19T00:19:26;0.00;;;0.00;;
54815;SDS011;40715;55.752;37.884;2022-08-19T00:21:53;0.00;;;0.00;;
54815;SDS011;40715;55.752;37.884;2022-08-19T00:24:22;0.00;;;0.00;;
54815;SDS011;40715;55.752;37.884;2022-08-19T00:26:51;0.00;;;0.00;;
54815;SDS011;40715;55.752;37.884;2022-08-19T00:29:19;0.00;;;0.00;;
54815;SDS011;40715;55.752;37.884;2022-08-19T00:31:47;0.00;;;0.00;;
54815;SDS011;40715;55.752;37.884;2022-08-19T00:34:16;0.00;;;0.00;;
54815;SDS011;40715;55.752;37.884;2022-08-19T00:36:43;0.00;;;0.00;;
54815;SDS011;40715;55.752;37.884;2022-08-19T00:39:12;0.00;;;0.00;;
54815;SDS011;40715;55.752;37.884;2022-08-19T00:41:40;0.00;;;0.00;;
54815;SDS011;40715;55.752;37.884;2022-08-19T00:44:09;0.00;;;0.00;;
54815;SDS011;40715;55.752;37.884;2022-08-19T00:46:37;0.00;;;0.00;;
54815;SDS011;40715;55.752;37.884;2022-08-19T00:49:14;0.00;;;0.00;;
54815;SDS011;40715;55.752;37.884;2022-08-19T00:54:32;0.00;;;0.00;;
54815;SDS011;40715;55.752;37.884;2022-08-19T00:57:00;0.00;;;0.00;;
54815;SDS011;40715;55.752;37.884;2022-08-19T00:59:33;0.25;;;0.00;;
54815;SDS011;40715;55.752;37.884;2022-08-19T01:02:18;0.00;;;0.00;;
54815;SDS011;40715;55.752;37.884;2022-08-19T01:04:46;0.00;;;0.00;;
54815;SDS011;40715;55.752;37.884;2022-08-19T01:07:13;0.00;;;0.00;;
54815;SDS011;40715;55.752;37.884;2022-08-19T01:09:40;0.00;;;0.00;;
54815;SDS011;40715;55.752;37.884;2022-08-19T01:12:07;0.00;;;0.00;;
54815;SDS011;40715;55.752;37.884;2022-08-19T01:14:36;0.00;;;0.00;;
54815;SDS011;40715;55.752;37.884;2022-08-19T01:17:05;0.00;;;0.00;;
54815;SDS011;40715;55.752;37.884;2022-08-19T01:19:39;0.00;;;0.00;;
54815;SDS011;40715;55.752;37.884;2022-08-19T01:22:16;0.00;;;0.00;;
54815;SDS011;40715;55.752;37.884;2022-08-19T01:24:56;0.00;;;0.00;;
54815;SDS011;40715;55.752;37.884;2022-08-19T01:27:23;0.00;;;0.00;;
54815;SDS011;40715;55.752;37.884;2022-08-19T01:29:50;0.10;;;0.00;;
54815;SDS011;40715;55.752;37.884;2022-08-19T01:32:17;0.00;;;0.00;;
54815;SDS011;40715;55.752;37.884;2022-08-19T01:34:46;0.00;;;0.00;;
54815;SDS011;40715;55.752;37.884;2022-08-19T01:37:13;0.00;;;0.00;;
54815;SDS011;40715;55.752;37.884;2022-08-19T01:39:41;0.00;;;0.00;;
54815;SDS011;40715;55.752;37.884;2022-08-19T01:42:08;0.00;;;0.00;;
54815;SDS011;40715;55.752;37.884;2022-08-19T01:44:39;0.00;;;0.00;;
54815;SDS011;40715;55.752;37.884;2022-08-19T01:47:09;0.00;;;0.00;;
54815;SDS011;40715;55.752;37.884;2022-08-19T01:49:36;0.00;;;0.00;;
54815;SDS011;40715;55.752;37.884;2022-08-19T01:52:04;0.00;;;0.00;;
54815;SDS011;40715;55.752;37.884;2022-08-19T01:54:32;0.00;;;0.00;;
54815;SDS011;40715;55.752;37.884;2022-08-19T01:57:03;0.00;;;0.00;;
54815;SDS011;40715;55.752;37.884;2022-08-19T01:59:33;0.00;;;0.00;;
54815;SDS011;40715;55.752;37.884;2022-08-19T02:02:04;0.00;;;0.00;;
54815;SDS011;40715;55.752;37.884;2022-08-19T02:04:35;0.00;;;0.00;;
54815;SDS011;40715;55.752;37.884;2022-08-19T02:07:04;0.00;;;0.00;;
54815;SDS011;40715;55.752;37.884;2022-08-19T02:09:32;0.10;;;0.00;;
54815;SDS011;40715;55.752;37.884;2022-08-19T02:11:59;0.00;;;0.00;;
54815;SDS011;40715;55.752;37.884;2022-08-19T02:14:26;0.00;;;0.00;;
54815;SDS011;40715;55.752;37.884;2022-08-19T02:16:53;0.00;;;0.00;;
54815;SDS011;40715;55.752;37.884;2022-08-19T02:19:20;0.00;;;0.00;;
54815;SDS011;40715;55.752;37.884;2022-08-19T02:21:47;0.00;;;0.00;;
54815;SDS011;40715;55.752;37.884;2022-08-19T02:24:14;0.00;;;0.00;;
54815;SDS011;40715;55.752;37.884;2022-08-19T02:26:41;0.00;;;0.00;;
54815;SDS011;40715;55.752;37.884;2022-08-19T02:29:08;0.00;;;0.00;;
54815;SDS011;40715;55.752;37.884;2022-08-19T02:31:35;0.00;;;0.00;;
54815;SDS011;40715;55.752;37.884;2022-08-19T02:34:02;0.10;;;0.00;;
54815;SDS011;40715;55.752;37.884;2022-08-19T02:36:29;0.00;;;0.00;;
54815;SDS011;40715;55.752;37.884;2022-08-19T02:38:56;0.00;;;0.00;;
54815;SDS011;40715;55.752;37.884;2022-08-19T02:41:31;0.00;;;0.00;;
54815;SDS011;40715;55.752;37.884;2022-08-19T02:44:00;0.00;;;0.00;;
54815;SDS011;40715;55.752;37.884;2022-08-19T02:46:45;0.00;;;0.00;;
54815;SDS011;40715;55.752;37.884;2022-08-19T02:49:13;0.00;;;0.00;;
54815;SDS011;40715;55.752;37.884;2022-08-19T02:51:44;0.00;;;0.00;;
54815;SDS011;40715;55.752;37.884;2022-08-19T02:54:12;0.00;;;0.00;;
54815;SDS011;40715;55.752;37.884;2022-08-19T02:56:40;0.17;;;0.00;;
54815;SDS011;40715;55.752;37.884;2022-08-19T02:59:08;0.00;;;0.00;;
54815;SDS011;40715;55.752;37.884;2022-08-19T03:01:37;0.00;;;0.00;;
54815;SDS011;40715;55.752;37.884;2022-08-19T03:04:06;0.00;;;0.00;;
54815;SDS011;40715;55.752;37.884;2022-08-19T03:06:38;0.00;;;0.00;;
54815;SDS011;40715;55.752;37.884;2022-08-19T03:09:06;0.00;;;0.00;;
54815;SDS011;40715;55.752;37.884;2022-08-19T03:11:33;0.00;;;0.00;;
54815;SDS011;40715;55.752;37.884;2022-08-19T03:14:01;0.00;;;0.00;;
54815;SDS011;40715;55.752;37.884;2022-08-19T03:16:29;0.00;;;0.00;;
54815;SDS011;40715;55.752;37.884;2022-08-19T03:18:59;0.00;;;0.00;;
54815;SDS011;40715;55.752;37.884;2022-08-19T03:21:28;0.00;;;0.00;;
54815;SDS011;40715;55.752;37.884;2022-08-19T03:23:59;0.00;;;0.00;;
54815;SDS011;40715;55.752;37.884;2022-08-19T03:26:30;0.00;;;0.00;;
54815;SDS011;40715;55.752;37.884;2022-08-19T03:29:00;0.00;;;0.00;;
54815;SDS011;40715;55.752;37.884;2022-08-19T03:31:30;0.00;;;0.00;;
54815;SDS011;40715;55.752;37.884;2022-08-19T03:34:07;0.00;;;0.00;;
54815;SDS011;40715;55.752;37.884;2022-08-19T03:36:35;0.00;;;0.00;;
54815;SDS011;40715;55.752;37.884;2022-08-19T03:39:02;0.00;;;0.00;;
54815;SDS011;40715;55.752;37.884;2022-08-19T03:41:33;0.08;;;0.00;;
54815;SDS011;40715;55.752;37.884;2022-08-19T03:44:09;0.00;;;0.00;;
54815;SDS011;40715;55.752;37.884;2022-08-19T03:46:37;0.00;;;0.00;;
54815;SDS011;40715;55.752;37.884;2022-08-19T03:49:04;0.00;;;0.00;;
54815;SDS011;40715;55.752;37.884;2022-08-19T03:51:36;0.00;;;0.00;;
54815;SDS011;40715;55.752;37.884;2022-08-19T03:54:06;0.00;;;0.00;;
54815;SDS011;40715;55.752;37.884;2022-08-19T03:56:35;0.00;;;0.00;;
54815;SDS011;40715;55.752;37.884;2022-08-19T03:59:04;0.00;;;0.00;;
54815;SDS011;40715;55.752;37.884;2022-08-19T04:01:34;0.00;;;0.00;;
54815;SDS011;40715;55.752;37.884;2022-08-19T04:04:02;0.00;;;0.00;;
54815;SDS011;40715;55.752;37.884;2022-08-19T04:06:31;0.00;;;0.00;;
54815;SDS011;40715;55.752;37.884;2022-08-19T04:09:01;0.00;;;0.00;;
54815;SDS011;40715;55.752;37.884;2022-08-19T04:11:34;0.00;;;0.00;;
54815;SDS011;40715;55.752;37.884;2022-08-19T04:14:10;0.00;;;0.00;;
54815;SDS011;40715;55.752;37.884;2022-08-19T04:16:38;0.05;;;0.00;;
54815;SDS011;40715;55.752;37.884;2022-08-19T04:19:05;0.00;;;0.00;;
54815;SDS011;40715;55.752;37.884;2022-08-19T04:21:33;0.00;;;0.00;;
54815;SDS011;40715;55.752;37.884;2022-08-19T04:24:01;0.00;;;0.00;;
54815;SDS011;40715;55.752;37.884;2022-08-19T04:26:30;0.00;;;0.00;;
54815;SDS011;40715;55.752;37.884;2022-08-19T04:29:00;0.00;;;0.00;;
54815;SDS011;40715;55.752;37.884;2022-08-19T04:31:29;0.00;;;0.00;;
54815;SDS011;40715;55.752;37.884;2022-08-19T04:33:59;0.10;;;0.10;;
54815;SDS011;40715;55.752;37.884;2022-08-19T04:36:29;0.10;;;0.10;;
54815;SDS011;40715;55.752;37.884;2022-08-19T04:39:03;0.10;;;0.10;;
54815;SDS011;40715;55.752;37.884;2022-08-19T04:41:33;0.10;;;0.10;;
54815;SDS011;40715;55.752;37.884;2022-08-19T04:44:19;0.10;;;0.10;;
54815;SDS011;40715;55.752;37.884;2022-08-19T04:46:49;0.10;;;0.10;;
54815;SDS011;40715;55.752;37.884;2022-08-19T04:49:18;0.10;;;0.10;;
54815;SDS011;40715;55.752;37.884;2022-08-19T04:51:49;0.10;;;0.10;;
54815;SDS011;40715;55.752;37.884;2022-08-19T04:54:18;0.10;;;0.10;;
54815;SDS011;40715;55.752;37.884;2022-08-19T04:57:04;0.10;;;0.10;;
54815;SDS011;40715;55.752;37.884;2022-08-19T04:59:34;0.00;;;0.00;;
54815;SDS011;40715;55.752;37.884;2022-08-19T05:02:02;0.10;;;0.10;;
54815;SDS011;40715;55.752;37.884;2022-08-19T05:04:30;0.10;;;0.10;;
54815;SDS011;40715;55.752;37.884;2022-08-19T05:06:58;0.10;;;0.10;;
54815;SDS011;40715;55.752;37.884;2022-08-19T05:09:27;0.10;;;0.10;;
54815;SDS011;40715;55.752;37.884;2022-08-19T05:11:58;0.10;;;0.10;;
54815;SDS011;40715;55.752;37.884;2022-08-19T05:14:26;0.10;;;0.10;;
54815;SDS011;40715;55.752;37.884;2022-08-19T05:16:53;0.10;;;0.10;;
54815;SDS011;40715;55.752;37.884;2022-08-19T05:19:36;0.10;;;0.10;;
54815;SDS011;40715;55.752;37.884;2022-08-19T05:22:32;0.00;;;0.00;;
54815;SDS011;40715;55.752;37.884;2022-08-19T05:25:02;0.10;;;0.10;;
54815;SDS011;40715;55.752;37.884;2022-08-19T05:27:38;0.10;;;0.10;;
54815;SDS011;40715;55.752;37.884;2022-08-19T05:30:06;0.10;;;0.10;;
54815;SDS011;40715;55.752;37.884;2022-08-19T05:32:34;0.10;;;0.10;;
54815;SDS011;40715;55.752;37.884;2022-08-19T05:35:02;0.10;;;0.10;;
54815;SDS011;40715;55.752;37.884;2022-08-19T05:37:30;0.10;;;0.10;;
54815;SDS011;40715;55.752;37.884;2022-08-19T05:39:57;0.10;;;0.10;;
54815;SDS011;40715;55.752;37.884;2022-08-19T05:42:24;0.10;;;0.10;;
54815;SDS011;40715;55.752;37.884;2022-08-19T05:44:51;0.15;;;0.15;;
54815;SDS011;40715;55.752;37.884;2022-08-19T05:47:18;0.20;;;0.20;;
54815;SDS011;40715;55.752;37.884;2022-08-19T05:49:46;0.20;;;0.20;;
54815;SDS011;40715;55.752;37.884;2022-08-19T05:52:16;0.20;;;0.20;;
54815;SDS011;40715;55.752;37.884;2022-08-19T05:54:44;0.20;;;0.20;;
54815;SDS011;40715;55.752;37.884;2022-08-19T05:57:14;0.20;;;0.20;;
54815;SDS011;40715;55.752;37.884;2022-08-19T05:59:41;0.20;;;0.20;;
54815;SDS011;40715;55.752;37.884;2022-08-19T06:02:08;0.20;;;0.20;;
54815;SDS011;40715;55.752;37.884;2022-08-19T06:04:35;0.20;;;0.20;;
54815;SDS011;40715;55.752;37.884;2022-08-19T06:07:02;0.20;;;0.20;;
54815;SDS011;40715;55.752;37.884;2022-08-19T06:09:37;0.20;;;0.20;;
54815;SDS011;40715;55.752;37.884;2022-08-19T06:12:04;0.30;;;0.30;;
54815;SDS011;40715;55.752;37.884;2022-08-19T06:14:32;0.20;;;0.20;;
54815;SDS011;40715;55.752;37.884;2022-08-19T06:17:02;0.20;;;0.20;;
54815;SDS011;40715;55.752;37.884;2022-08-19T06:19:32;0.30;;;0.30;;
54815;SDS011;40715;55.752;37.884;2022-08-19T06:22:00;0.30;;;0.30;;
54815;SDS011;40715;55.752;37.884;2022-08-19T06:24:28;0.32;;;0.32;;
54815;SDS011;40715;55.752;37.884;2022-08-19T06:26:56;0.50;;;0.50;;
54815;SDS011;40715;55.752;37.884;2022-08-19T06:29:26;0.50;;;0.50;;
54815;SDS011;40715;55.752;37.884;2022-08-19T06:31:55;0.80;;;0.80;;
54815;SDS011;40715;55.752;37.884;2022-08-19T06:34:24;0.82;;;0.82;;
54815;SDS011;40715;55.752;37.884;2022-08-19T06:36:54;0.90;;;0.90;;
54815;SDS011;40715;55.752;37.884;2022-08-19T06:39:24;0.98;;;0.98;;
54815;SDS011;40715;55.752;37.884;2022-08-19T06:41:54;1.20;;;1.20;;
54815;SDS011;40715;55.752;37.884;2022-08-19T06:44:25;1.00;;;1.00;;
54815;SDS011;40715;55.752;37.884;2022-08-19T06:46:53;1.00;;;1.00;;
54815;SDS011;40715;55.752;37.884;2022-08-19T06:49:22;1.30;;;1.30;;
54815;SDS011;40715;55.752;37.884;2022-08-19T06:51:49;1.40;;;1.40;;
54815;SDS011;40715;55.752;37.884;2022-08-19T06:54:17;1.83;;;1.83;;
54815;SDS011;40715;55.752;37.884;2022-08-19T06:56:45;1.50;;;1.50;;
54815;SDS011;40715;55.752;37.884;2022-08-19T06:59:18;1.50;;;1.50;;
54815;SDS011;40715;55.752;37.884;2022-08-19T07:01:49;1.58;;;1.58;;
54815;SDS011;40715;55.752;37.884;2022-08-19T07:04:19;1.35;;;1.35;;
54815;SDS011;40715;55.752;37.884;2022-08-19T07:06:48;1.40;;;1.40;;
54815;SDS011;40715;55.752;37.884;2022-08-19T07:09:19;1.30;;;1.30;;
54815;SDS011;40715;55.752;37.884;2022-08-19T07:11:46;1.10;;;1.10;;
54815;SDS011;40715;55.752;37.884;2022-08-19T07:14:19;1.00;;;1.00;;
54815;SDS011;40715;55.752;37.884;2022-08-19T07:16:49;1.00;;;1.00;;
54815;SDS011;40715;55.752;37.884;2022-08-19T07:19:18;0.90;;;0.90;;
54815;SDS011;40715;55.752;37.884;2022-08-19T07:21:49;0.70;;;0.70;;
54815;SDS011;40715;55.752;37.884;2022-08-19T07:24:19;0.55;;;0.55;;
54815;SDS011;40715;55.752;37.884;2022-08-19T07:26:51;0.50;;;0.50;;
54815;SDS011;40715;55.752;37.884;2022-08-19T07:29:19;0.50;;;0.50;;
54815;SDS011;40715;55.752;37.884;2022-08-19T07:31:51;0.40;;;0.40;;
54815;SDS011;40715;55.752;37.884;2022-08-19T07:34:19;0.30;;;0.30;;
54815;SDS011;40715;55.752;37.884;2022-08-19T07:36:46;0.30;;;0.30;;
54815;SDS011;40715;55.752;37.884;2022-08-19T07:39:14;0.30;;;0.30;;
54815;SDS011;40715;55.752;37.884;2022-08-19T07:41:44;0.52;;;0.52;;
54815;SDS011;40715;55.752;37.884;2022-08-19T07:44:12;0.20;;;0.20;;
54815;SDS011;40715;55.752;37.884;2022-08-19T07:46:43;0.20;;;0.20;;
54815;SDS011;40715;55.752;37.884;2022-08-19T07:49:15;0.17;;;0.17;;
54815;SDS011;40715;55.752;37.884;2022-08-19T07:51:46;0.20;;;0.20;;
54815;SDS011;40715;55.752;37.884;2022-08-19T07:54:15;0.20;;;0.20;;
54815;SDS011;40715;55.752;37.884;2022-08-19T07:56:43;0.20;;;0.20;;
54815;SDS011;40715;55.752;37.884;2022-08-19T07:59:10;0.20;;;0.20;;
54815;SDS011;40715;55.752;37.884;2022-08-19T08:01:38;0.13;;;0.13;;
54815;SDS011;40715;55.752;37.884;2022-08-19T08:04:06;0.20;;;0.20;;
54815;SDS011;40715;55.752;37.884;2022-08-19T08:06:53;0.17;;;0.17;;
54815;SDS011;40715;55.752;37.884;2022-08-19T08:12:14;0.10;;;0.10;;
54815;SDS011;40715;55.752;37.884;2022-08-19T08:15:00;0.10;;;0.10;;
54815;SDS011;40715;55.752;37.884;2022-08-19T08:17:29;0.20;;;0.20;;
54815;SDS011;40715;55.752;37.884;2022-08-19T08:20:15;0.10;;;0.10;;
54815;SDS011;40715;55.752;37.884;2022-08-19T08:22:43;0.10;;;0.10;;
54815;SDS011;40715;55.752;37.884;2022-08-19T08:25:29;0.10;;;0.10;;
54815;SDS011;40715;55.752;37.884;2022-08-19T08:27:58;0.10;;;0.10;;
54815;SDS011;40715;55.752;37.884;2022-08-19T08:30:27;0.10;;;0.10;;
54815;SDS011;40715;55.752;37.884;2022-08-19T08:32:58;0.10;;;0.10;;
54815;SDS011;40715;55.752;37.884;2022-08-19T08:35:25;0.10;;;0.10;;
54815;SDS011;40715;55.752;37.884;2022-08-19T08:37:52;0.00;;;0.00;;
54815;SDS011;40715;55.752;37.884;2022-08-19T08:48:38;0.00;;;0.00;;
54815;SDS011;40715;55.752;37.884;2022-08-19T08:51:12;0.05;;;0.05;;
54815;SDS011;40715;55.752;37.884;2022-08-19T08:53:45;0.10;;;0.10;;
54815;SDS011;40715;55.752;37.884;2022-08-19T08:56:15;0.10;;;0.10;;
54815;SDS011;40715;55.752;37.884;2022-08-19T08:59:03;0.10;;;0.10;;
54815;SDS011;40715;55.752;37.884;2022-08-19T09:01:34;0.10;;;0.10;;
54815;SDS011;40715;55.752;37.884;2022-08-19T09:04:03;0.10;;;0.10;;
54815;SDS011;40715;55.752;37.884;2022-08-19T09:09:45;0.20;;;0.20;;
54815;SDS011;40715;55.752;37.884;2022-08-19T09:17:26;0.30;;;0.30;;
54815;SDS011;40715;55.752;37.884;2022-08-19T09:20:19;0.30;;;0.30;;
54815;SDS011;40715;55.752;37.884;2022-08-19T09:22:46;0.30;;;0.30;;
54815;SDS011;40715;55.752;37.884;2022-08-19T09:25:16;0.30;;;0.30;;
54815;SDS011;40715;55.752;37.884;2022-08-19T09:27:52;0.30;;;0.30;;
54815;SDS011;40715;55.752;37.884;2022-08-19T09:30:22;0.30;;;0.30;;
54815;SDS011;40715;55.752;37.884;2022-08-19T09:32:51;0.30;;;0.30;;
54815;SDS011;40715;55.752;37.884;2022-08-19T09:35:23;0.30;;;0.30;;
54815;SDS011;40715;55.752;37.884;2022-08-19T09:37:54;0.40;;;0.40;;
54815;SDS011;40715;55.752;37.884;2022-08-19T09:40:25;0.40;;;0.40;;
54815;SDS011;40715;55.752;37.884;2022-08-19T09:42:53;0.50;;;0.50;;
54815;SDS011;40715;55.752;37.884;2022-08-19T09:45:21;0.40;;;0.40;;
54815;SDS011;40715;55.752;37.884;2022-08-19T09:47:49;0.20;;;0.20;;
54815;SDS011;40715;55.752;37.884;2022-08-19T09:50:19;0.20;;;0.20;;
54815;SDS011;40715;55.752;37.884;2022-08-19T09:52:48;0.20;;;0.20;;
54815;SDS011;40715;55.752;37.884;2022-08-19T09:55:19;0.10;;;0.10;;
54815;SDS011;40715;55.752;37.884;2022-08-19T09:57:46;0.10;;;0.10;;
54815;SDS011;40715;55.752;37.884;2022-08-19T10:00:13;0.10;;;0.10;;
54815;SDS011;40715;55.752;37.884;2022-08-19T10:02:40;0.10;;;0.10;;
54815;SDS011;40715;55.752;37.884;2022-08-19T10:05:07;0.10;;;0.10;;
54815;SDS011;40715;55.752;37.884;2022-08-19T10:07:53;0.10;;;0.10;;
54815;SDS011;40715;55.752;37.884;2022-08-19T10:10:22;0.10;;;0.10;;
54815;SDS011;40715;55.752;37.884;2022-08-19T10:12:48;0.00;;;0.00;;
54815;SDS011;40715;55.752;37.884;2022-08-19T10:15:15;0.10;;;0.10;;
54815;SDS011;40715;55.752;37.884;2022-08-19T10:17:46;0.10;;;0.10;;
54815;SDS011;40715;55.752;37.884;2022-08-19T10:20:20;0.10;;;0.10;;
54815;SDS011;40715;55.752;37.884;2022-08-19T10:22:48;0.00;;;0.00;;
54815;SDS011;40715;55.752;37.884;2022-08-19T10:25:17;0.00;;;0.00;;
54815;SDS011;40715;55.752;37.884;2022-08-19T10:27:44;0.10;;;0.10;;
54815;SDS011;40715;55.752;37.884;2022-08-19T10:30:13;0.00;;;0.00;;
54815;SDS011;40715;55.752;37.884;2022-08-19T10:32:40;0.00;;;0.00;;
54815;SDS011;40715;55.752;37.884;2022-08-19T10:35:12;0.00;;;0.00;;
54815;SDS011;40715;55.752;37.884;2022-08-19T10:37:41;0.10;;;0.10;;
54815;SDS011;40715;55.752;37.884;2022-08-19T10:40:15;0.00;;;0.00;;
54815;SDS011;40715;55.752;37.884;2022-08-19T10:42:42;0.00;;;0.00;;
54815;SDS011;40715;55.752;37.884;2022-08-19T10:45:10;0.10;;;0.10;;
54815;SDS011;40715;55.752;37.884;2022-08-19T10:47:37;0.63;;;0.10;;
54815;SDS011;40715;55.752;37.884;2022-08-19T10:50:04;0.00;;;0.00;;
54815;SDS011;40715;55.752;37.884;2022-08-19T10:52:50;0.00;;;0.00;;
54815;SDS011;40715;55.752;37.884;2022-08-19T10:55:19;0.00;;;0.00;;
54815;SDS011;40715;55.752;37.884;2022-08-19T10:58:10;0.10;;;0.10;;
54815;SDS011;40715;55.752;37.884;2022-08-19T11:00:38;0.00;;;0.00;;
54815;SDS011;40715;55.752;37.884;2022-08-19T11:03:06;0.00;;;0.00;;
54815;SDS011;40715;55.752;37.884;2022-08-19T11:05:33;0.00;;;0.00;;
54815;SDS011;40715;55.752;37.884;2022-08-19T11:08:03;0.10;;;0.10;;
54815;SDS011;40715;55.752;37.884;2022-08-19T11:10:32;0.00;;;0.00;;
54815;SDS011;40715;55.752;37.884;2022-08-19T11:12:59;0.00;;;0.00;;
54815;SDS011;40715;55.752;37.884;2022-08-19T11:15:27;0.00;;;0.00;;
54815;SDS011;40715;55.752;37.884;2022-08-19T11:17:55;0.00;;;0.00;;
54815;SDS011;40715;55.752;37.884;2022-08-19T11:20:22;0.00;;;0.00;;
54815;SDS011;40715;55.752;37.884;2022-08-19T11:22:51;0.00;;;0.00;;
54815;SDS011;40715;55.752;37.884;2022-08-19T11:25:19;0.00;;;0.00;;
54815;SDS011;40715;55.752;37.884;2022-08-19T11:27:46;0.00;;;0.00;;
54815;SDS011;40715;55.752;37.884;2022-08-19T11:30:17;0.00;;;0.00;;
54815;SDS011;40715;55.752;37.884;2022-08-19T11:32:44;0.00;;;0.00;;
54815;SDS011;40715;55.752;37.884;2022-08-19T11:35:15;0.10;;;0.10;;
54815;SDS011;40715;55.752;37.884;2022-08-19T11:37:42;0.00;;;0.00;;
54815;SDS011;40715;55.752;37.884;2022-08-19T11:40:09;0.00;;;0.00;;
54815;SDS011;40715;55.752;37.884;2022-08-19T11:42:37;0.00;;;0.00;;
54815;SDS011;40715;55.752;37.884;2022-08-19T11:45:23;0.00;;;0.00;;
54815;SDS011;40715;55.752;37.884;2022-08-19T11:47:51;0.00;;;0.00;;
54815;SDS011;40715;55.752;37.884;2022-08-19T11:50:18;0.00;;;0.00;;
54815;SDS011;40715;55.752;37.884;2022-08-19T11:52:46;0.00;;;0.00;;
54815;SDS011;40715;55.752;37.884;2022-08-19T11:55:15;0.00;;;0.00;;
54815;SDS011;40715;55.752;37.884;2022-08-19T11:57:42;0.00;;;0.00;;
54815;SDS011;40715;55.752;37.884;2022-08-19T12:00:10;0.00;;;0.00;;
54815;SDS011;40715;55.752;37.884;2022-08-19T12:02:39;0.00;;;0.00;;
54815;SDS011;40715;55.752;37.884;2022-08-19T12:05:07;0.00;;;0.00;;
54815;SDS011;40715;55.752;37.884;2022-08-19T12:07:37;0.00;;;0.00;;
54815;SDS011;40715;55.752;37.884;2022-08-19T12:10:04;0.00;;;0.00;;
54815;SDS011;40715;55.752;37.884;2022-08-19T12:12:31;0.00;;;0.00;;
54815;SDS011;40715;55.752;37.884;2022-08-19T12:14:58;0.22;;;0.10;;
54815;SDS011;40715;55.752;37.884;2022-08-19T12:17:26;0.00;;;0.00;;
54815;SDS011;40715;55.752;37.884;2022-08-19T12:19:53;0.00;;;0.00;;
54815;SDS011;40715;55.752;37.884;2022-08-19T12:22:21;0.00;;;0.00;;
54815;SDS011;40715;55.752;37.884;2022-08-19T12:24:48;0.00;;;0.00;;
54815;SDS011;40715;55.752;37.884;2022-08-19T12:27:17;0.00;;;0.00;;
54815;SDS011;40715;55.752;37.884;2022-08-19T12:29:45;0.00;;;0.00;;
54815;SDS011;40715;55.752;37.884;2022-08-19T12:32:12;0.00;;;0.00;;
54815;SDS011;40715;55.752;37.884;2022-08-19T12:34:40;0.00;;;0.00;;
54815;SDS011;40715;55.752;37.884;2022-08-19T12:37:07;0.00;;;0.00;;
54815;SDS011;40715;55.752;37.884;2022-08-19T12:39:37;0.00;;;0.00;;
54815;SDS011;40715;55.752;37.884;2022-08-19T12:42:06;0.00;;;0.00;;
54815;SDS011;40715;55.752;37.884;2022-08-19T12:44:36;0.00;;;0.00;;
54815;SDS011;40715;55.752;37.884;2022-08-19T12:47:07;0.03;;;0.00;;
54815;SDS011;40715;55.752;37.884;2022-08-19T12:49:36;0.00;;;0.00;;
54815;SDS011;40715;55.752;37.884;2022-08-19T12:52:20;0.00;;;0.00;;
54815;SDS011;40715;55.752;37.884;2022-08-19T12:54:49;0.00;;;0.00;;
54815;SDS011;40715;55.752;37.884;2022-08-19T12:57:20;0.00;;;0.00;;
54815;SDS011;40715;55.752;37.884;2022-08-19T12:59:59;0.00;;;0.00;;
54815;SDS011;40715;55.752;37.884;2022-08-19T13:02:27;0.00;;;0.00;;
54815;SDS011;40715;55.752;37.884;2022-08-19T13:04:54;0.10;;;0.00;;
54815;SDS011;40715;55.752;37.884;2022-08-19T13:07:20;0.00;;;0.00;;
54815;SDS011;40715;55.752;37.884;2022-08-19T13:09:47;0.00;;;0.00;;
54815;SDS011;40715;55.752;37.884;2022-08-19T13:12:18;0.00;;;0.00;;
54815;SDS011;40715;55.752;37.884;2022-08-19T13:14:50;0.00;;;0.00;;
54815;SDS011;40715;55.752;37.884;2022-08-19T13:17:18;0.00;;;0.00;;
54815;SDS011;40715;55.752;37.884;2022-08-19T13:19:46;0.00;;;0.00;;
54815;SDS011;40715;55.752;37.884;2022-08-19T13:22:13;0.00;;;0.00;;
54815;SDS011;40715;55.752;37.884;2022-08-19T13:24:40;0.00;;;0.00;;
54815;SDS011;40715;55.752;37.884;2022-08-19T13:27:12;0.00;;;0.00;;
54815;SDS011;40715;55.752;37.884;2022-08-19T13:29:40;0.30;;;0.00;;
54815;SDS011;40715;55.752;37.884;2022-08-19T13:32:27;0.00;;;0.00;;
54815;SDS011;40715;55.752;37.884;2022-08-19T13:35:16;0.00;;;0.00;;
54815;SDS011;40715;55.752;37.884;2022-08-19T13:37:43;0.00;;;0.00;;
54815;SDS011;40715;55.752;37.884;2022-08-19T13:40:13;0.05;;;0.05;;
54815;SDS011;40715;55.752;37.884;2022-08-19T13:42:46;0.00;;;0.00;;
54815;SDS011;40715;55.752;37.884;2022-08-19T13:45:18;0.00;;;0.00;;
54815;SDS011;40715;55.752;37.884;2022-08-19T13:47:48;0.00;;;0.00;;
54815;SDS011;40715;55.752;37.884;2022-08-19T13:50:21;0.00;;;0.00;;
54815;SDS011;40715;55.752;37.884;2022-08-19T13:52:52;0.00;;;0.00;;
54815;SDS011;40715;55.752;37.884;2022-08-19T13:55:20;0.00;;;0.00;;
54815;SDS011;40715;55.752;37.884;2022-08-19T13:57:54;0.00;;;0.00;;
54815;SDS011;40715;55.752;37.884;2022-08-19T14:00:23;0.00;;;0.00;;
54815;SDS011;40715;55.752;37.884;2022-08-19T14:02:53;0.00;;;0.00;;
54815;SDS011;40715;55.752;37.884;2022-08-19T14:05:22;0.20;;;0.00;;
54815;SDS011;40715;55.752;37.884;2022-08-19T14:07:50;0.03;;;0.03;;
54815;SDS011;40715;55.752;37.884;2022-08-19T14:10:17;0.00;;;0.00;;
54815;SDS011;40715;55.752;37.884;2022-08-19T14:12:45;0.00;;;0.00;;
54815;SDS011;40715;55.752;37.884;2022-08-19T14:15:14;0.08;;;0.00;;
54815;SDS011;40715;55.752;37.884;2022-08-19T14:17:42;0.00;;;0.00;;
54815;SDS011;40715;55.752;37.884;2022-08-19T14:20:13;0.00;;;0.00;;
54815;SDS011;40715;55.752;37.884;2022-08-19T14:22:43;0.00;;;0.00;;
54815;SDS011;40715;55.752;37.884;2022-08-19T14:25:12;0.00;;;0.00;;
54815;SDS011;40715;55.752;37.884;2022-08-19T14:27:41;0.00;;;0.00;;
54815;SDS011;40715;55.752;37.884;2022-08-19T14:30:09;0.00;;;0.00;;
54815;SDS011;40715;55.752;37.884;2022-08-19T14:32:41;0.00;;;0.00;;
54815;SDS011;40715;55.752;37.884;2022-08-19T14:35:10;0.00;;;0.00;;
54815;SDS011;40715;55.752;37.884;2022-08-19T14:37:39;0.00;;;0.00;;
54815;SDS011;40715;55.752;37.884;2022-08-19T14:40:11;0.00;;;0.00;;
54815;SDS011;40715;55.752;37.884;2022-08-19T14:42:42;0.03;;;0.00;;
54815;SDS011;40715;55.752;37.884;2022-08-19T14:45:10;0.00;;;0.00;;
54815;SDS011;40715;55.752;37.884;2022-08-19T14:47:38;0.00;;;0.00;;
54815;SDS011;40715;55.752;37.884;2022-08-19T14:50:09;0.00;;;0.00;;
54815;SDS011;40715;55.752;37.884;2022-08-19T14:52:43;0.00;;;0.00;;
54815;SDS011;40715;55.752;37.884;2022-08-19T14:55:10;0.00;;;0.00;;
54815;SDS011;40715;55.752;37.884;2022-08-19T14:57:37;0.00;;;0.00;;
54815;SDS011;40715;55.752;37.884;2022-08-19T15:00:04;0.00;;;0.00;;
54815;SDS011;40715;55.752;37.884;2022-08-19T15:02:31;0.00;;;0.00;;
54815;SDS011;40715;55.752;37.884;2022-08-19T15:05:00;0.00;;;0.00;;
54815;SDS011;40715;55.752;37.884;2022-08-19T15:07:28;0.00;;;0.00;;
54815;SDS011;40715;55.752;37.884;2022-08-19T15:09:56;0.00;;;0.00;;
54815;SDS011;40715;55.752;37.884;2022-08-19T15:12:24;0.00;;;0.00;;